sensor_id;sensor_type;location;lat;lon;timestamp;temperature;humidity
11894;DHT22;6006;49.696;8.662;2023-07-20T00:01:34;18.00;1.00
11894;DHT22;6006;49.696;8.662;2023-07-20T00:04:01;17.90;1.00
11894;DHT22;6006;49.696;8.662;2023-07-20T00:06:28;17.90;1.00
11894;DHT22;6006;49.696;8.662;2023-07-20T00:08:55;17.90;99.90
11894;DHT22;6006;49.696;8.662;2023-07-20T00:11:25;17.80;1.00
11894;DHT22;6006;49.696;8.662;2023-07-20T00:13:53;17.80;1.00
11894;DHT22;6006;49.696;8.662;2023-07-20T00:16:20;17.80;1.00
11894;DHT22;6006;49.696;8.662;2023-07-20T00:18:47;17.70;1.00
11894;DHT22;6006;49.696;8.662;2023-07-20T00:21:14;17.70;33.20
11894;DHT22;6006;49.696;8.662;2023-07-20T00:23:41;17.70;99.90
11894;DHT22;6006;49.696;8.662;2023-07-20T00:26:08;17.60;99.90
11894;DHT22;6006;49.696;8.662;2023-07-20T00:28:35;17.60;1.00
11894;DHT22;6006;49.696;8.662;2023-07-20T00:31:03;17.60;99.90
11894;DHT22;6006;49.696;8.662;2023-07-20T00:33:30;17.60;99.90
11894;DHT22;6006;49.696;8.662;2023-07-20T00:35:57;17.60;1.00
11894;DHT22;6006;49.696;8.662;2023-07-20T00:38:24;17.50;1.00
11894;DHT22;6006;49.696;8.662;2023-07-20T00:40:51;17.50;1.00
11894;DHT22;6006;49.696;8.662;2023-07-20T00:43:18;17.40;1.00
11894;DHT22;6006;49.696;8.662;2023-07-20T00:45:45;17.40;99.90
11894;DHT22;6006;49.696;8.662;2023-07-20T00:48:14;17.30;1.00
11894;DHT22;6006;49.696;8.662;2023-07-20T00:50:41;17.30;1.00
11894;DHT22;6006;49.696;8.662;2023-07-20T00:53:09;17.10;1.00
11894;DHT22;6006;49.696;8.662;2023-07-20T00:55:36;17.10;99.90
11894;DHT22;6006;49.696;8.662;2023-07-20T00:58:03;17.00;99.90
11894;DHT22;6006;49.696;8.662;2023-07-20T01:00:30;16.90;1.00
11894;DHT22;6006;49.696;8.662;2023-07-20T01:02:57;16.90;99.90
11894;DHT22;6006;49.696;8.662;2023-07-20T01:05:35;16.80;99.90
11894;DHT22;6006;49.696;8.662;2023-07-20T01:08:12;16.70;1.00
11894;DHT22;6006;49.696;8.662;2023-07-20T01:10:46;16.60;1.00
11894;DHT22;6006;49.696;8.662;2023-07-20T01:13:18;16.40;1.00
11894;DHT22;6006;49.696;8.662;2023-07-20T01:15:49;16.30;1.00
11894;DHT22;6006;49.696;8.662;2023-07-20T01:18:16;16.10;99.90
11894;DHT22;6006;49.696;8.662;2023-07-20T01:20:45;16.00;1.00
11894;DHT22;6006;49.696;8.662;2023-07-20T01:23:33;15.90;1.00
11894;DHT22;6006;49.696;8.662;2023-07-20T01:26:35;15.80;99.90
11894;DHT22;6006;49.696;8.662;2023-07-20T01:29:17;15.60;1.00
11894;DHT22;6006;49.696;8.662;2023-07-20T01:31:52;15.50;99.90
11894;DHT22;6006;49.696;8.662;2023-07-20T01:34:22;15.30;1.00
11894;DHT22;6006;49.696;8.662;2023-07-20T01:36:50;15.30;99.90
11894;DHT22;6006;49.696;8.662;2023-07-20T01:39:21;15.20;99.90
11894;DHT22;6006;49.696;8.662;2023-07-20T01:41:48;15.00;1.00
11894;DHT22;6006;49.696;8.662;2023-07-20T01:44:15;15.00;1.00
11894;DHT22;6006;49.696;8.662;2023-07-20T01:46:42;14.90;1.00
11894;DHT22;6006;49.696;8.662;2023-07-20T01:49:10;14.70;1.00
11894;DHT22;6006;49.696;8.662;2023-07-20T01:51:37;14.70;1.00
11894;DHT22;6006;49.696;8.662;2023-07-20T01:54:04;14.60;1.00
11894;DHT22;6006;49.696;8.662;2023-07-20T01:56:31;14.50;1.00
11894;DHT22;6006;49.696;8.662;2023-07-20T01:58:58;14.50;1.00
11894;DHT22;6006;49.696;8.662;2023-07-20T02:01:24;14.60;1.00
11894;DHT22;6006;49.696;8.662;2023-07-20T02:03:54;14.40;1.00
11894;DHT22;6006;49.696;8.662;2023-07-20T02:06:22;14.40;94.30
11894;DHT22;6006;49.696;8.662;2023-07-20T02:08:49;14.30;58.40
11894;DHT22;6006;49.696;8.662;2023-07-20T02:11:16;14.30;14.20
11894;DHT22;6006;49.696;8.662;2023-07-20T02:13:43;14.20;16.50
11894;DHT22;6006;49.696;8.662;2023-07-20T02:16:10;14.10;78.00
11894;DHT22;6006;49.696;8.662;2023-07-20T02:18:37;14.00;99.90
11894;DHT22;6006;49.696;8.662;2023-07-20T02:21:04;14.00;99.90
11894;DHT22;6006;49.696;8.662;2023-07-20T02:23:32;13.80;99.90
11894;DHT22;6006;49.696;8.662;2023-07-20T02:25:59;13.80;99.90
11894;DHT22;6006;49.696;8.662;2023-07-20T02:28:26;13.70;99.90
11894;DHT22;6006;49.696;8.662;2023-07-20T02:30:54;13.70;99.90
11894;DHT22;6006;49.696;8.662;2023-07-20T02:33:21;13.60;99.90
11894;DHT22;6006;49.696;8.662;2023-07-20T02:35:48;13.50;99.90
11894;DHT22;6006;49.696;8.662;2023-07-20T02:38:15;13.50;99.90
11894;DHT22;6006;49.696;8.662;2023-07-20T02:40:43;13.40;99.90
11894;DHT22;6006;49.696;8.662;2023-07-20T02:43:10;13.40;99.90
11894;DHT22;6006;49.696;8.662;2023-07-20T02:45:40;13.30;99.90
11894;DHT22;6006;49.696;8.662;2023-07-20T02:48:07;13.30;99.90
11894;DHT22;6006;49.696;8.662;2023-07-20T02:50:34;13.30;99.90
11894;DHT22;6006;49.696;8.662;2023-07-20T02:53:01;13.20;99.90
11894;DHT22;6006;49.696;8.662;2023-07-20T02:55:28;13.20;99.90
11894;DHT22;6006;49.696;8.662;2023-07-20T02:57:57;13.20;99.90
11894;DHT22;6006;49.696;8.662;2023-07-20T03:00:24;13.20;99.90
11894;DHT22;6006;49.696;8.662;2023-07-20T03:02:51;13.20;99.90
11894;DHT22;6006;49.696;8.662;2023-07-20T03:05:21;13.20;99.90
11894;DHT22;6006;49.696;8.662;2023-07-20T03:07:48;13.20;99.90
11894;DHT22;6006;49.696;8.662;2023-07-20T03:10:15;13.20;99.90
11894;DHT22;6006;49.696;8.662;2023-07-20T03:12:42;13.20;99.90
11894;DHT22;6006;49.696;8.662;2023-07-20T03:15:12;13.20;99.90
11894;DHT22;6006;49.696;8.662;2023-07-20T03:17:38;13.20;99.90
11894;DHT22;6006;49.696;8.662;2023-07-20T03:20:07;13.10;99.90
11894;DHT22;6006;49.696;8.662;2023-07-20T03:22:35;13.10;99.90
11894;DHT22;6006;49.696;8.662;2023-07-20T03:25:03;13.00;99.90
11894;DHT22;6006;49.696;8.662;2023-07-20T03:27:30;13.00;99.90
11894;DHT22;6006;49.696;8.662;2023-07-20T03:29:57;13.00;99.90
11894;DHT22;6006;49.696;8.662;2023-07-20T03:32:25;12.90;99.90
11894;DHT22;6006;49.696;8.662;2023-07-20T03:34:52;12.90;99.90
11894;DHT22;6006;49.696;8.662;2023-07-20T03:37:18;12.90;99.90
11894;DHT22;6006;49.696;8.662;2023-07-20T03:39:45;12.80;99.90
11894;DHT22;6006;49.696;8.662;2023-07-20T03:42:12;12.80;99.90
11894;DHT22;6006;49.696;8.662;2023-07-20T03:44:39;12.70;99.90
11894;DHT22;6006;49.696;8.662;2023-07-20T03:47:06;12.70;99.90
11894;DHT22;6006;49.696;8.662;2023-07-20T03:49:34;12.70;99.90
11894;DHT22;6006;49.696;8.662;2023-07-20T03:52:01;12.70;99.90
11894;DHT22;6006;49.696;8.662;2023-07-20T03:54:28;12.70;99.90
11894;DHT22;6006;49.696;8.662;2023-07-20T03:56:55;12.60;99.90
11894;DHT22;6006;49.696;8.662;2023-07-20T03:59:22;12.60;99.90
11894;DHT22;6006;49.696;8.662;2023-07-20T04:01:49;12.60;99.90
11894;DHT22;6006;49.696;8.662;2023-07-20T04:04:16;12.60;99.90
11894;DHT22;6006;49.696;8.662;2023-07-20T04:06:44;12.70;99.90
11894;DHT22;6006;49.696;8.662;2023-07-20T04:09:12;12.70;99.90
11894;DHT22;6006;49.696;8.662;2023-07-20T04:11:39;12.70;99.90
11894;DHT22;6006;49.696;8.662;2023-07-20T04:14:06;12.60;99.90
11894;DHT22;6006;49.696;8.662;2023-07-20T04:16:33;12.60;99.90
11894;DHT22;6006;49.696;8.662;2023-07-20T04:19:00;12.60;99.90
11894;DHT22;6006;49.696;8.662;2023-07-20T04:21:27;12.60;99.90
11894;DHT22;6006;49.696;8.662;2023-07-20T04:23:55;12.70;99.90
11894;DHT22;6006;49.696;8.662;2023-07-20T04:26:22;12.70;99.90
11894;DHT22;6006;49.696;8.662;2023-07-20T04:28:49;12.70;99.90
11894;DHT22;6006;49.696;8.662;2023-07-20T04:31:18;12.70;99.90
11894;DHT22;6006;49.696;8.662;2023-07-20T04:33:45;12.70;99.90
11894;DHT22;6006;49.696;8.662;2023-07-20T04:36:12;12.80;99.90
11894;DHT22;6006;49.696;8.662;2023-07-20T04:38:41;12.90;99.90
11894;DHT22;6006;49.696;8.662;2023-07-20T04:41:10;12.90;99.90
11894;DHT22;6006;49.696;8.662;2023-07-20T04:43:41;13.00;99.90
11894;DHT22;6006;49.696;8.662;2023-07-20T04:46:08;13.10;99.90
11894;DHT22;6006;49.696;8.662;2023-07-20T04:48:35;13.20;99.90
11894;DHT22;6006;49.696;8.662;2023-07-20T04:51:03;13.30;99.90
11894;DHT22;6006;49.696;8.662;2023-07-20T04:53:30;13.40;99.90
11894;DHT22;6006;49.696;8.662;2023-07-20T04:55:57;13.60;99.90
11894;DHT22;6006;49.696;8.662;2023-07-20T04:58:26;13.80;99.90
11894;DHT22;6006;49.696;8.662;2023-07-20T05:00:53;13.90;99.90
11894;DHT22;6006;49.696;8.662;2023-07-20T05:03:20;14.00;99.90
11894;DHT22;6006;49.696;8.662;2023-07-20T05:05:47;14.20;99.90
11894;DHT22;6006;49.696;8.662;2023-07-20T05:08:14;14.30;99.90
11894;DHT22;6006;49.696;8.662;2023-07-20T05:10:41;14.40;99.90
11894;DHT22;6006;49.696;8.662;2023-07-20T05:13:08;14.50;99.90
11894;DHT22;6006;49.696;8.662;2023-07-20T05:15:36;14.60;99.90
11894;DHT22;6006;49.696;8.662;2023-07-20T05:18:04;14.80;99.90
11894;DHT22;6006;49.696;8.662;2023-07-20T05:20:31;15.10;99.90
11894;DHT22;6006;49.696;8.662;2023-07-20T05:22:59;15.20;99.90
11894;DHT22;6006;49.696;8.662;2023-07-20T05:25:26;15.50;99.90
11894;DHT22;6006;49.696;8.662;2023-07-20T05:27:53;15.70;1.00
11894;DHT22;6006;49.696;8.662;2023-07-20T05:30:21;15.90;1.00
11894;DHT22;6006;49.696;8.662;2023-07-20T05:32:49;16.10;1.00
11894;DHT22;6006;49.696;8.662;2023-07-20T05:35:17;16.40;1.00
11894;DHT22;6006;49.696;8.662;2023-07-20T05:37:45;16.80;1.00
11894;DHT22;6006;49.696;8.662;2023-07-20T05:40:13;17.20;7.60
11894;DHT22;6006;49.696;8.662;2023-07-20T05:42:44;17.50;72.90
11894;DHT22;6006;49.696;8.662;2023-07-20T05:45:11;17.70;1.00
11894;DHT22;6006;49.696;8.662;2023-07-20T05:47:38;17.70;1.00
11894;DHT22;6006;49.696;8.662;2023-07-20T05:50:07;17.70;99.90
11894;DHT22;6006;49.696;8.662;2023-07-20T05:52:34;17.50;99.90
11894;DHT22;6006;49.696;8.662;2023-07-20T05:55:01;17.60;99.90
11894;DHT22;6006;49.696;8.662;2023-07-20T05:57:28;17.80;99.90
11894;DHT22;6006;49.696;8.662;2023-07-20T05:59:55;18.10;99.90
11894;DHT22;6006;49.696;8.662;2023-07-20T06:02:22;18.50;99.90
11894;DHT22;6006;49.696;8.662;2023-07-20T06:04:49;18.80;1.00
11894;DHT22;6006;49.696;8.662;2023-07-20T06:07:17;19.30;1.00
11894;DHT22;6006;49.696;8.662;2023-07-20T06:09:44;19.20;1.00
11894;DHT22;6006;49.696;8.662;2023-07-20T06:12:11;19.30;1.00
11894;DHT22;6006;49.696;8.662;2023-07-20T06:14:38;19.40;1.00
11894;DHT22;6006;49.696;8.662;2023-07-20T06:17:05;19.80;1.00
11894;DHT22;6006;49.696;8.662;2023-07-20T06:19:32;20.00;99.90
11894;DHT22;6006;49.696;8.662;2023-07-20T06:21:59;20.30;99.90
11894;DHT22;6006;49.696;8.662;2023-07-20T06:24:28;20.40;99.90
11894;DHT22;6006;49.696;8.662;2023-07-20T06:26:55;20.30;99.90
11894;DHT22;6006;49.696;8.662;2023-07-20T06:29:22;20.60;99.90
11894;DHT22;6006;49.696;8.662;2023-07-20T06:31:49;20.30;99.90
11894;DHT22;6006;49.696;8.662;2023-07-20T06:34:15;20.50;99.90
11894;DHT22;6006;49.696;8.662;2023-07-20T06:36:42;20.40;99.90
11894;DHT22;6006;49.696;8.662;2023-07-20T06:39:09;20.30;99.90
11894;DHT22;6006;49.696;8.662;2023-07-20T06:41:37;20.90;99.90
11894;DHT22;6006;49.696;8.662;2023-07-20T06:44:04;21.10;99.90
11894;DHT22;6006;49.696;8.662;2023-07-20T06:46:31;21.10;99.90
11894;DHT22;6006;49.696;8.662;2023-07-20T06:48:58;21.40;99.90
11894;DHT22;6006;49.696;8.662;2023-07-20T06:51:25;21.60;99.90
11894;DHT22;6006;49.696;8.662;2023-07-20T06:53:52;21.80;99.90
11894;DHT22;6006;49.696;8.662;2023-07-20T06:56:19;21.50;99.90
11894;DHT22;6006;49.696;8.662;2023-07-20T06:58:47;21.50;99.90
11894;DHT22;6006;49.696;8.662;2023-07-20T07:01:14;21.60;99.90
11894;DHT22;6006;49.696;8.662;2023-07-20T07:03:41;22.10;99.90
11894;DHT22;6006;49.696;8.662;2023-07-20T07:06:09;21.80;99.90
11894;DHT22;6006;49.696;8.662;2023-07-20T07:08:37;20.80;99.90
11894;DHT22;6006;49.696;8.662;2023-07-20T07:11:04;21.00;99.90
11894;DHT22;6006;49.696;8.662;2023-07-20T07:13:31;21.00;99.90
11894;DHT22;6006;49.696;8.662;2023-07-20T07:15:59;21.60;99.90
11894;DHT22;6006;49.696;8.662;2023-07-20T07:18:26;22.20;99.90
11894;DHT22;6006;49.696;8.662;2023-07-20T07:20:53;21.60;99.90
11894;DHT22;6006;49.696;8.662;2023-07-20T07:23:20;21.90;99.90
11894;DHT22;6006;49.696;8.662;2023-07-20T07:25:47;22.20;99.90
11894;DHT22;6006;49.696;8.662;2023-07-20T07:28:14;21.70;99.90
11894;DHT22;6006;49.696;8.662;2023-07-20T07:30:42;22.30;99.90
11894;DHT22;6006;49.696;8.662;2023-07-20T07:33:10;22.50;99.90
11894;DHT22;6006;49.696;8.662;2023-07-20T07:35:38;21.40;99.90
11894;DHT22;6006;49.696;8.662;2023-07-20T07:38:05;21.00;99.90
11894;DHT22;6006;49.696;8.662;2023-07-20T07:40:32;20.90;99.90
11894;DHT22;6006;49.696;8.662;2023-07-20T07:42:59;21.40;99.90
11894;DHT22;6006;49.696;8.662;2023-07-20T07:45:26;21.80;99.90
11894;DHT22;6006;49.696;8.662;2023-07-20T07:47:52;22.50;99.90
11894;DHT22;6006;49.696;8.662;2023-07-20T07:50:21;23.30;99.90
11894;DHT22;6006;49.696;8.662;2023-07-20T07:52:48;22.60;99.90
11894;DHT22;6006;49.696;8.662;2023-07-20T07:55:15;21.60;99.90
11894;DHT22;6006;49.696;8.662;2023-07-20T07:57:43;21.60;99.90
11894;DHT22;6006;49.696;8.662;2023-07-20T08:00:11;21.60;99.90
11894;DHT22;6006;49.696;8.662;2023-07-20T08:02:40;21.20;99.90
11894;DHT22;6006;49.696;8.662;2023-07-20T08:05:08;20.50;99.90
11894;DHT22;6006;49.696;8.662;2023-07-20T08:07:37;20.60;99.90
11894;DHT22;6006;49.696;8.662;2023-07-20T08:10:04;20.30;1.00
11894;DHT22;6006;49.696;8.662;2023-07-20T08:12:31;20.40;1.00
11894;DHT22;6006;49.696;8.662;2023-07-20T08:14:58;20.90;99.90
11894;DHT22;6006;49.696;8.662;2023-07-20T08:17:25;21.30;99.90
11894;DHT22;6006;49.696;8.662;2023-07-20T08:19:52;21.60;99.90
11894;DHT22;6006;49.696;8.662;2023-07-20T08:22:19;22.00;99.90
11894;DHT22;6006;49.696;8.662;2023-07-20T08:24:47;22.20;99.90
11894;DHT22;6006;49.696;8.662;2023-07-20T08:27:14;23.40;99.90
11894;DHT22;6006;49.696;8.662;2023-07-20T08:29:41;24.10;99.90
11894;DHT22;6006;49.696;8.662;2023-07-20T08:32:08;24.80;99.90
11894;DHT22;6006;49.696;8.662;2023-07-20T08:34:35;24.10;99.90
11894;DHT22;6006;49.696;8.662;2023-07-20T08:37:02;24.10;99.90
11894;DHT22;6006;49.696;8.662;2023-07-20T08:39:29;24.70;99.90
11894;DHT22;6006;49.696;8.662;2023-07-20T08:41:59;24.80;99.90
11894;DHT22;6006;49.696;8.662;2023-07-20T08:44:30;23.70;99.90
11894;DHT22;6006;49.696;8.662;2023-07-20T08:46:59;23.60;99.90
11894;DHT22;6006;49.696;8.662;2023-07-20T08:49:28;23.60;99.90
11894;DHT22;6006;49.696;8.662;2023-07-20T08:51:56;23.80;99.90
11894;DHT22;6006;49.696;8.662;2023-07-20T08:54:23;25.20;99.90
11894;DHT22;6006;49.696;8.662;2023-07-20T08:56:51;26.10;99.90
11894;DHT22;6006;49.696;8.662;2023-07-20T08:59:19;26.70;99.90
11894;DHT22;6006;49.696;8.662;2023-07-20T09:01:48;25.10;99.90
11894;DHT22;6006;49.696;8.662;2023-07-20T09:04:15;24.80;99.90
11894;DHT22;6006;49.696;8.662;2023-07-20T09:06:42;25.00;99.90
11894;DHT22;6006;49.696;8.662;2023-07-20T09:09:09;25.20;99.90
11894;DHT22;6006;49.696;8.662;2023-07-20T09:11:36;24.90;99.90
11894;DHT22;6006;49.696;8.662;2023-07-20T09:14:04;24.70;99.90
11894;DHT22;6006;49.696;8.662;2023-07-20T09:16:46;24.10;99.90
11894;DHT22;6006;49.696;8.662;2023-07-20T09:19:15;23.10;99.90
11894;DHT22;6006;49.696;8.662;2023-07-20T09:21:44;23.20;99.90
11894;DHT22;6006;49.696;8.662;2023-07-20T09:24:13;24.00;99.90
11894;DHT22;6006;49.696;8.662;2023-07-20T09:26:44;24.80;99.90
11894;DHT22;6006;49.696;8.662;2023-07-20T09:29:11;25.70;99.90
11894;DHT22;6006;49.696;8.662;2023-07-20T09:31:39;25.70;99.90
11894;DHT22;6006;49.696;8.662;2023-07-20T09:34:06;25.70;99.90
11894;DHT22;6006;49.696;8.662;2023-07-20T09:36:34;25.60;99.90
11894;DHT22;6006;49.696;8.662;2023-07-20T09:39:03;26.70;99.90
11894;DHT22;6006;49.696;8.662;2023-07-20T09:41:31;27.80;99.90
11894;DHT22;6006;49.696;8.662;2023-07-20T09:44:07;26.60;99.90
11894;DHT22;6006;49.696;8.662;2023-07-20T09:46:44;26.20;99.90
11894;DHT22;6006;49.696;8.662;2023-07-20T09:49:12;26.00;99.90
11894;DHT22;6006;49.696;8.662;2023-07-20T09:51:39;25.40;99.90
11894;DHT22;6006;49.696;8.662;2023-07-20T09:54:06;25.20;99.90
11894;DHT22;6006;49.696;8.662;2023-07-20T09:56:34;25.00;99.90
11894;DHT22;6006;49.696;8.662;2023-07-20T09:59:01;23.90;99.90
11894;DHT22;6006;49.696;8.662;2023-07-20T10:01:29;23.80;99.90
11894;DHT22;6006;49.696;8.662;2023-07-20T10:03:58;25.10;99.90
11894;DHT22;6006;49.696;8.662;2023-07-20T10:06:29;25.30;99.90
11894;DHT22;6006;49.696;8.662;2023-07-20T10:09:01;24.80;99.90
11894;DHT22;6006;49.696;8.662;2023-07-20T10:11:30;25.70;99.90
11894;DHT22;6006;49.696;8.662;2023-07-20T10:13:59;25.20;99.90
11894;DHT22;6006;49.696;8.662;2023-07-20T10:16:28;25.30;99.90
11894;DHT22;6006;49.696;8.662;2023-07-20T10:19:03;25.90;99.90
11894;DHT22;6006;49.696;8.662;2023-07-20T10:21:30;25.20;99.90
11894;DHT22;6006;49.696;8.662;2023-07-20T10:23:57;24.90;99.90
11894;DHT22;6006;49.696;8.662;2023-07-20T10:26:25;24.00;99.90
11894;DHT22;6006;49.696;8.662;2023-07-20T10:28:52;23.50;99.90
11894;DHT22;6006;49.696;8.662;2023-07-20T10:31:20;23.30;99.90
11894;DHT22;6006;49.696;8.662;2023-07-20T10:33:48;23.60;99.90
11894;DHT22;6006;49.696;8.662;2023-07-20T10:36:24;23.90;99.90
11894;DHT22;6006;49.696;8.662;2023-07-20T10:38:55;23.90;99.90
11894;DHT22;6006;49.696;8.662;2023-07-20T10:41:27;23.60;99.90
11894;DHT22;6006;49.696;8.662;2023-07-20T10:43:58;24.20;99.90
11894;DHT22;6006;49.696;8.662;2023-07-20T10:46:34;24.80;99.90
11894;DHT22;6006;49.696;8.662;2023-07-20T10:49:03;26.10;99.90
11894;DHT22;6006;49.696;8.662;2023-07-20T10:51:39;26.50;99.90
11894;DHT22;6006;49.696;8.662;2023-07-20T10:54:08;26.70;99.90
11894;DHT22;6006;49.696;8.662;2023-07-20T10:56:35;27.30;99.90
11894;DHT22;6006;49.696;8.662;2023-07-20T10:59:17;27.20;99.90
11894;DHT22;6006;49.696;8.662;2023-07-20T11:01:45;27.00;99.90
11894;DHT22;6006;49.696;8.662;2023-07-20T11:04:13;27.00;99.90
11894;DHT22;6006;49.696;8.662;2023-07-20T11:06:44;27.50;99.90
11894;DHT22;6006;49.696;8.662;2023-07-20T11:09:12;28.20;99.90
11894;DHT22;6006;49.696;8.662;2023-07-20T11:11:41;28.40;99.90
11894;DHT22;6006;49.696;8.662;2023-07-20T11:14:09;27.80;99.90
11894;DHT22;6006;49.696;8.662;2023-07-20T11:16:40;27.60;99.90
11894;DHT22;6006;49.696;8.662;2023-07-20T11:19:16;26.60;99.90
11894;DHT22;6006;49.696;8.662;2023-07-20T11:21:45;25.10;99.90
11894;DHT22;6006;49.696;8.662;2023-07-20T11:24:12;24.50;99.90
11894;DHT22;6006;49.696;8.662;2023-07-20T11:26:43;24.30;99.90
11894;DHT22;6006;49.696;8.662;2023-07-20T11:29:10;24.40;99.90
11894;DHT22;6006;49.696;8.662;2023-07-20T11:31:38;24.30;99.90
11894;DHT22;6006;49.696;8.662;2023-07-20T11:34:06;24.60;99.90
11894;DHT22;6006;49.696;8.662;2023-07-20T11:36:33;24.80;99.90
11894;DHT22;6006;49.696;8.662;2023-07-20T11:39:02;24.70;99.90
11894;DHT22;6006;49.696;8.662;2023-07-20T11:41:31;24.20;99.90
11894;DHT22;6006;49.696;8.662;2023-07-20T11:43:57;23.80;99.90
11894;DHT22;6006;49.696;8.662;2023-07-20T11:46:24;24.00;99.90
11894;DHT22;6006;49.696;8.662;2023-07-20T11:48:56;24.20;99.90
11894;DHT22;6006;49.696;8.662;2023-07-20T11:51:24;24.00;99.90
11894;DHT22;6006;49.696;8.662;2023-07-20T11:53:51;23.90;99.90
11894;DHT22;6006;49.696;8.662;2023-07-20T11:56:19;23.90;99.90
11894;DHT22;6006;49.696;8.662;2023-07-20T11:58:46;23.70;99.90
11894;DHT22;6006;49.696;8.662;2023-07-20T12:01:13;23.40;99.90
11894;DHT22;6006;49.696;8.662;2023-07-20T12:03:42;23.90;99.90
11894;DHT22;6006;49.696;8.662;2023-07-20T12:06:09;25.40;99.90
11894;DHT22;6006;49.696;8.662;2023-07-20T12:08:38;26.70;99.90
11894;DHT22;6006;49.696;8.662;2023-07-20T12:11:06;26.30;99.90
11894;DHT22;6006;49.696;8.662;2023-07-20T12:13:39;26.30;99.90
11894;DHT22;6006;49.696;8.662;2023-07-20T12:16:09;26.20;99.90
11894;DHT22;6006;49.696;8.662;2023-07-20T12:18:37;25.30;99.90
11894;DHT22;6006;49.696;8.662;2023-07-20T12:21:06;25.00;99.90
11894;DHT22;6006;49.696;8.662;2023-07-20T12:23:37;25.10;99.90
11894;DHT22;6006;49.696;8.662;2023-07-20T12:26:06;25.60;99.90
11894;DHT22;6006;49.696;8.662;2023-07-20T12:28:39;26.90;99.90
11894;DHT22;6006;49.696;8.662;2023-07-20T12:31:07;26.50;99.90
11894;DHT22;6006;49.696;8.662;2023-07-20T12:33:35;27.10;99.90
11894;DHT22;6006;49.696;8.662;2023-07-20T12:36:02;27.90;99.90
11894;DHT22;6006;49.696;8.662;2023-07-20T12:38:29;29.00;99.90
11894;DHT22;6006;49.696;8.662;2023-07-20T12:40:57;30.10;99.90
11894;DHT22;6006;49.696;8.662;2023-07-20T12:43:25;30.80;99.90
11894;DHT22;6006;49.696;8.662;2023-07-20T12:45:54;29.70;99.90
11894;DHT22;6006;49.696;8.662;2023-07-20T12:48:21;29.40;99.90
11894;DHT22;6006;49.696;8.662;2023-07-20T12:50:48;27.60;99.90
11894;DHT22;6006;49.696;8.662;2023-07-20T12:53:15;27.00;99.90
11894;DHT22;6006;49.696;8.662;2023-07-20T12:55:42;26.20;99.90
11894;DHT22;6006;49.696;8.662;2023-07-20T12:58:09;25.60;99.90
11894;DHT22;6006;49.696;8.662;2023-07-20T13:00:36;26.50;99.90
11894;DHT22;6006;49.696;8.662;2023-07-20T13:03:04;27.00;99.90
11894;DHT22;6006;49.696;8.662;2023-07-20T13:05:32;27.30;99.90
11894;DHT22;6006;49.696;8.662;2023-07-20T13:07:59;27.20;99.90
11894;DHT22;6006;49.696;8.662;2023-07-20T13:10:26;27.20;99.90
11894;DHT22;6006;49.696;8.662;2023-07-20T13:12:53;26.40;99.90
11894;DHT22;6006;49.696;8.662;2023-07-20T13:15:20;26.00;99.90
11894;DHT22;6006;49.696;8.662;2023-07-20T13:17:46;26.50;99.90
11894;DHT22;6006;49.696;8.662;2023-07-20T13:20:15;27.10;99.90
11894;DHT22;6006;49.696;8.662;2023-07-20T13:22:42;28.50;99.90
11894;DHT22;6006;49.696;8.662;2023-07-20T13:25:09;28.70;99.90
11894;DHT22;6006;49.696;8.662;2023-07-20T13:27:36;27.70;99.90
11894;DHT22;6006;49.696;8.662;2023-07-20T13:30:04;28.80;99.90
11894;DHT22;6006;49.696;8.662;2023-07-20T13:32:32;28.70;99.90
11894;DHT22;6006;49.696;8.662;2023-07-20T13:34:59;29.50;99.90
11894;DHT22;6006;49.696;8.662;2023-07-20T13:37:28;29.40;99.90
11894;DHT22;6006;49.696;8.662;2023-07-20T13:39:55;28.00;99.90
11894;DHT22;6006;49.696;8.662;2023-07-20T13:42:22;29.20;99.90
11894;DHT22;6006;49.696;8.662;2023-07-20T13:44:49;30.10;99.90
11894;DHT22;6006;49.696;8.662;2023-07-20T13:47:15;30.00;99.90
11894;DHT22;6006;49.696;8.662;2023-07-20T13:49:43;29.30;99.90
11894;DHT22;6006;49.696;8.662;2023-07-20T13:52:10;27.40;99.90
11894;DHT22;6006;49.696;8.662;2023-07-20T13:54:38;26.50;99.90
11894;DHT22;6006;49.696;8.662;2023-07-20T13:57:05;26.80;99.90
11894;DHT22;6006;49.696;8.662;2023-07-20T13:59:32;26.70;99.90
11894;DHT22;6006;49.696;8.662;2023-07-20T14:01:59;26.40;99.90
11894;DHT22;6006;49.696;8.662;2023-07-20T14:04:26;26.30;99.90
11894;DHT22;6006;49.696;8.662;2023-07-20T14:06:54;26.60;99.90
11894;DHT22;6006;49.696;8.662;2023-07-20T14:09:21;27.10;99.90
11894;DHT22;6006;49.696;8.662;2023-07-20T14:11:49;27.30;99.90
11894;DHT22;6006;49.696;8.662;2023-07-20T14:14:16;27.20;99.90
11894;DHT22;6006;49.696;8.662;2023-07-20T14:16:43;26.50;99.90
11894;DHT22;6006;49.696;8.662;2023-07-20T14:19:10;26.90;99.90
11894;DHT22;6006;49.696;8.662;2023-07-20T14:21:38;27.10;99.90
11894;DHT22;6006;49.696;8.662;2023-07-20T14:24:05;27.20;99.90
11894;DHT22;6006;49.696;8.662;2023-07-20T14:26:32;27.70;99.90
11894;DHT22;6006;49.696;8.662;2023-07-20T14:29:01;28.40;99.90
11894;DHT22;6006;49.696;8.662;2023-07-20T14:31:28;28.30;99.90
11894;DHT22;6006;49.696;8.662;2023-07-20T14:33:55;27.90;99.90
11894;DHT22;6006;49.696;8.662;2023-07-20T14:36:21;27.90;99.90
11894;DHT22;6006;49.696;8.662;2023-07-20T14:38:49;28.10;99.90
11894;DHT22;6006;49.696;8.662;2023-07-20T14:41:16;28.70;99.90
11894;DHT22;6006;49.696;8.662;2023-07-20T14:43:43;29.30;99.90
11894;DHT22;6006;49.696;8.662;2023-07-20T14:46:11;29.70;99.90
11894;DHT22;6006;49.696;8.662;2023-07-20T14:48:38;29.00;99.90
11894;DHT22;6006;49.696;8.662;2023-07-20T14:51:05;28.50;99.90
11894;DHT22;6006;49.696;8.662;2023-07-20T14:53:33;27.40;99.90
11894;DHT22;6006;49.696;8.662;2023-07-20T14:56:00;27.80;99.90
11894;DHT22;6006;49.696;8.662;2023-07-20T14:58:27;28.50;99.90
11894;DHT22;6006;49.696;8.662;2023-07-20T15:00:54;28.70;99.90
11894;DHT22;6006;49.696;8.662;2023-07-20T15:03:22;28.00;99.90
11894;DHT22;6006;49.696;8.662;2023-07-20T15:05:49;28.40;99.90
11894;DHT22;6006;49.696;8.662;2023-07-20T15:08:17;29.40;99.90
11894;DHT22;6006;49.696;8.662;2023-07-20T15:10:44;30.10;99.90
11894;DHT22;6006;49.696;8.662;2023-07-20T15:13:12;30.80;99.90
11894;DHT22;6006;49.696;8.662;2023-07-20T15:15:39;30.50;99.90
11894;DHT22;6006;49.696;8.662;2023-07-20T15:18:05;29.90;99.90
11894;DHT22;6006;49.696;8.662;2023-07-20T15:20:34;28.50;99.90
11894;DHT22;6006;49.696;8.662;2023-07-20T15:23:00;27.90;99.90
11894;DHT22;6006;49.696;8.662;2023-07-20T15:25:27;27.80;99.90
11894;DHT22;6006;49.696;8.662;2023-07-20T15:27:54;28.80;99.90
11894;DHT22;6006;49.696;8.662;2023-07-20T15:30:21;29.40;99.90
11894;DHT22;6006;49.696;8.662;2023-07-20T15:32:48;29.00;99.90
11894;DHT22;6006;49.696;8.662;2023-07-20T15:35:15;29.40;99.90
11894;DHT22;6006;49.696;8.662;2023-07-20T15:37:44;28.30;99.90
11894;DHT22;6006;49.696;8.662;2023-07-20T15:40:12;28.40;99.90
11894;DHT22;6006;49.696;8.662;2023-07-20T15:42:39;28.70;99.90
11894;DHT22;6006;49.696;8.662;2023-07-20T15:45:07;27.90;99.90
11894;DHT22;6006;49.696;8.662;2023-07-20T15:47:34;27.30;99.90
11894;DHT22;6006;49.696;8.662;2023-07-20T15:50:01;27.90;99.90
11894;DHT22;6006;49.696;8.662;2023-07-20T15:52:28;28.40;99.90